ADDS METAR Data INFO
IDs: Format: Raw Decoded Include TAF

Data at: 1133 UTC 29 May 2017

KGLE 291115Z AUTO 36003KT 10SM CLR 16/14 A3004 RMK AO2 T01590140
KGLE 291055Z AUTO 00000KT 10SM CLR 16/15 A3004 RMK AO2 T01590146
KGLE 291035Z AUTO 00000KT 10SM CLR 16/14 A3002 RMK AO2 T01630144
KGLE 291015Z AUTO 00000KT 10SM CLR 17/15 A3002 RMK AO2 T01650150
KGLE 290955Z AUTO 00000KT 10SM CLR 16/15 A3002 RMK AO2 T01640150
KGLE 290935Z AUTO 00000KT 10SM CLR 16/15 A3003 RMK AO2 T01620148
KGLE 290915Z AUTO 00000KT 10SM CLR 17/15 A3003 RMK AO2 T01710151
KGLE 290855Z AUTO 00000KT 10SM CLR 17/15 A3003 RMK AO2 T01730149
KGLE 290835Z AUTO 00000KT 10SM CLR 18/16 A3004 RMK AO2 T01780156
KGLE 290815Z AUTO 00000KT 10SM CLR 18/16 A3005 RMK AO2 T01760160
KGLE 290755Z AUTO 00000KT 10SM CLR 18/16 A3006 RMK AO2 T01770158
KGLE 290735Z AUTO 00000KT 10SM CLR 19/16 A3007 RMK AO2 T01860162
KGLE 290715Z AUTO 00000KT 10SM CLR 19/17 A3007 RMK AO2 T01860165
KGLE 290655Z AUTO 00000KT 10SM CLR 18/17 A3007 RMK AO2 T01840165
KGLE 290635Z AUTO 00000KT 10SM CLR 19/17 A3007 RMK AO2 T01860168
KGLE 290615Z AUTO 00000KT 10SM CLR 19/17 A3007 RMK AO2 T01920168
KGLE 290555Z AUTO 00000KT 10SM CLR 20/17 A3007 RMK AO2 T01950169 10258 20195 402770189
KGLE 290535Z AUTO 00000KT 10SM CLR 20/17 A3007 RMK AO2 T01970170
KGLE 290515Z AUTO 00000KT 10SM CLR 20/17 A3007 RMK AO2 T01990171
KGLE 290455Z AUTO 00000KT 10SM CLR 20/17 A3007 RMK AO2 T02030170
KGLE 290435Z AUTO 00000KT 10SM CLR 21/17 A3007 RMK AO2 T02100167
KGLE 290415Z AUTO 00000KT 10SM CLR 21/17 A3006 RMK AO2 T02120167
KGLE 290355Z AUTO 00000KT 10SM CLR 21/17 A3005 RMK AO2 T02130167
KGLE 290335Z AUTO 00000KT 10SM CLR 22/17 A3004 RMK AO2 T02150168
KGLE 290315Z AUTO 00000KT 10SM CLR 22/17 A3003 RMK AO2 T02160168
KGLE 290255Z AUTO 00000KT 10SM CLR 22/17 A3003 RMK AO2 T02170168
KGLE 290235Z AUTO 10003KT 10SM CLR 22/17 A3002 RMK AO2 T02180167
KGLE 290215Z AUTO 00000KT 10SM CLR 22/17 A2999 RMK AO2 T02220168
KGLE 290155Z AUTO 09003KT 10SM CLR 23/17 A2998 RMK AO2 T02270166
KGLE 290135Z AUTO 08003KT 10SM CLR 24/16 A2998 RMK AO2 T02350161
KGLE 290115Z AUTO 05005KT 10SM CLR 24/17 A2995 RMK AO2 T02430166
KGLE 290055Z AUTO 04004KT 10SM CLR 25/16 A2995 RMK AO2 T02520161
KGLE 290035Z AUTO 02005KT 10SM CLR 26/16 A2995 RMK AO2 T02550161
KGLE 290015Z AUTO 01007KT 10SM CLR 25/16 A2995 RMK AO2 T02520160
KGLE 282355Z AUTO 02010G14KT 10SM CLR 26/16 A2994 RMK AO2 T02590161 10277 20245
KGLE 282335Z AUTO 02008KT 10SM CLR 26/17 A2994 RMK AO2 T02640167
KGLE 282315Z AUTO 02011KT 10SM CLR 26/16 A2993 RMK AO2 T02620160
KGLE 282255Z AUTO 02008KT 10SM CLR 27/17 A2996 RMK AO2 T02670165
KGLE 282235Z AUTO 02008KT 10SM CLR 27/16 A2997 RMK AO2 T02690164
KGLE 282215Z AUTO 02009G15KT 10SM CLR 27/16 A2998 RMK AO2 T02700164
KGLE 282155Z AUTO 03010KT 10SM CLR 26/16 A2998 RMK AO2 T02630162
KGLE 282135Z AUTO 03011G15KT 10SM CLR 27/17 A2999 RMK AO2 T02650167
KGLE 282115Z AUTO 03009KT 10SM SCT039 27/17 A3000 RMK AO2 T02740168
KGLE 282055Z AUTO 02010KT 10SM CLR 27/17 A3001 RMK AO2 T02680173
KGLE 282035Z AUTO 01011G15KT 10SM SCT046 27/17 A3001 RMK AO2 T02650173
KGLE 282015Z AUTO 04007KT 10SM BKN046 26/18 A3001 RMK AO2 T02590179
KGLE 281955Z AUTO 04006KT 10SM OVC044 25/18 A3003 RMK AO2 T02540177
KGLE 281935Z AUTO 04005KT 10SM SCT033 OVC042 25/18 A3004 RMK AO2 T02500178
KGLE 281915Z AUTO 03004KT 10SM SCT033 BKN045 25/18 A3004 RMK AO2 T02520176
KGLE 281855Z AUTO 05009KT 10SM SCT031 SCT035 25/18 A3003 RMK AO2 T02510177
KGLE 281835Z AUTO 03010G17KT 10SM BKN029 25/18 A3002 RMK AO2 T02480179
KGLE 281815Z AUTO 02008G15KT 10SM BKN029 25/18 A3004 RMK AO2 T02470177
KGLE 281755Z AUTO 05009KT 10SM BKN027 25/18 A3004 RMK AO2 T02490175 10254 20198
KGLE 281735Z AUTO 04007KT 10SM SCT025 25/18 A3003 RMK AO2 T02450178
KGLE 281715Z AUTO 05006KT 10SM BKN023 24/18 A3003 RMK AO2 T02390177
KGLE 281655Z AUTO 05010KT 10SM OVC023 24/18 A3003 RMK AO2 T02370181
KGLE 281635Z AUTO 04008G14KT 10SM BKN023 BKN028 24/18 A3002 RMK AO2 T02400181
KGLE 281615Z AUTO 02010KT 10SM BKN021 BKN026 23/18 A3002 RMK AO2 T02320180
KGLE 281555Z AUTO 04008KT 10SM OVC021 23/18 A3002 RMK AO2 T02310180
KGLE 281535Z AUTO 03008G14KT 10SM BKN021 23/18 A3002 RMK AO2 T02320183
KGLE 281515Z AUTO 03009G15KT 10SM SCT021 SCT095 24/18 A3001 RMK AO2 T02360181
KGLE 281455Z AUTO 04009KT 10SM SCT095 23/18 A3001 RMK AO2 T02330182
KGLE 281435Z AUTO 03007KT 10SM SCT025 23/18 A3001 RMK AO2 T02280183
KGLE 281415Z AUTO 05010KT 10SM BKN025 22/18 A3001 RMK AO2 T02200179
KGLE 281355Z AUTO 03005KT 10SM BKN025 22/18 A3001 RMK AO2 T02150181
KGLE 281335Z AUTO 02008KT 10SM SCT023 21/18 A3000 RMK AO2 T02120180
KGLE 281315Z AUTO 02008KT 10SM CLR 21/18 A2999 RMK AO2 T02140183
KGLE 281255Z AUTO 01005KT 10SM CLR 21/19 A2997 RMK AO2 T02100190
KGLE 281235Z AUTO 00000KT 10SM CLR 21/19 A2995 RMK AO2 T02050187
KGLE 281215Z AUTO 00000KT 10SM CLR 20/19 A2993 RMK AO2 T02020185
KGLE 281155Z AUTO 00000KT 10SM CLR 20/18 A2991 RMK AO2 60133 70133 T01970181 10273 20189
KGLE 281135Z AUTO 36006KT 10SM CLR 20/18 A2990 RMK AO2 T01950184
KGLE 281115Z AUTO 36006KT 10SM CLR 19/18 A2989 RMK AO2 T01930183
KGLE 281055Z AUTO 36003KT 10SM CLR 19/18 A2989 RMK AO2 T01920181
KGLE 281035Z AUTO 36003KT 10SM CLR 19/18 A2988 RMK AO2 T01910182
KGLE 281015Z AUTO 00000KT 10SM CLR 19/18 A2988 RMK AO2 T01910181
KGLE 280955Z AUTO 00000KT 10SM CLR 20/18 A2987 RMK AO2 T02000182
KGLE 280935Z AUTO 03003KT 10SM CLR 21/18 A2985 RMK AO2 T02060182
KGLE 280915Z AUTO 01008G14KT 10SM SCT010 SCT020 SCT035 21/18 A2983 RMK AO2 T02090182
KGLE 280855Z AUTO 04010G27KT 1 3/4SM +RA BKN014 BKN040 OVC100 20/18 A2979 RMK AO2 P0036 60132 T01960184
KGLE 280835Z AUTO 00000KT 7SM -RA SCT055 SCT085 OVC100 20/19 A2984 RMK AO2 P0008 T01960185
KGLE 280815Z AUTO 00000KT 7SM RA SCT047 BKN080 OVC100 20/19 A2984 RMK AO2 P0006 T01980185
KGLE 280755Z AUTO 23010KT 4SM +RA SCT034 BKN043 OVC060 19/18 A2985 RMK AO2 P0087 T01910182
KGLE 280735Z AUTO 00000KT 2 1/2SM +RA SCT016 BKN031 OVC049 19/18 A2983 RMK AO2 VIS 1 3/4V4 P0063 T01900178
KGLE 280715Z AUTO 03012KT 2 1/2SM +RA SCT011 BKN049 OVC060 20/18 A2981 RMK AO2 VIS 1V5 P0026 T01980177
KGLE 280655Z AUTO 04014KT 7SM RA SCT030 BKN041 OVC060 19/18 A2983 RMK AO2 P0006 T01920175
KGLE 280635Z AUTO 03015G22KT 10SM BKN027 OVC033 23/16 A2984 RMK AO2 T02290162
KGLE 280615Z AUTO 08014G23KT 10SM BKN027 BKN060 25/19 A2979 RMK AO2 T02470191
KGLE 280555Z AUTO 04008KT 7SM SCT060 27/23 A2980 RMK AO2 T02730230 10314 20267 403490232
KGLE 280535Z AUTO 17007KT 7SM CLR 27/23 A2976 RMK AO2 T02700230
KGLE 280515Z AUTO 16006KT 7SM CLR 27/23 A2977 RMK AO2 T02680230
KGLE 280455Z AUTO 17007KT 7SM CLR 28/23 A2975 RMK AO2 T02750231
KGLE 280435Z AUTO 18009KT 7SM CLR 28/23 A2975 RMK AO2 T02760232
KGLE 280415Z AUTO 19010KT 7SM CLR 28/23 A2975 RMK AO2 T02770232
KGLE 280355Z AUTO 19010KT 5SM HZ CLR 28/23 A2975 RMK AO2 T02770233
KGLE 280335Z AUTO 19011KT 5SM HZ CLR 28/23 A2975 RMK AO2 T02770233
KGLE 280315Z AUTO 19011KT 5SM HZ CLR 28/23 A2974 RMK AO2 T02770232
KGLE 280255Z AUTO 18010KT 5SM HZ CLR 28/23 A2975 RMK AO2 T02780232
KGLE 280235Z AUTO 18011KT 5SM HZ CLR 28/23 A2973 RMK AO2 T02800232
KGLE 280215Z AUTO 17012G17KT 5SM HZ CLR 28/23 A2973 RMK AO2 T02820232
KGLE 280155Z AUTO 17010KT 5SM HZ CLR 29/23 A2975 RMK AO2 T02850231
KGLE 280135Z AUTO 18013G18KT 7SM CLR 29/23 A2975 RMK AO2 T02910231
KGLE 280115Z AUTO 18012G18KT 7SM CLR 30/23 A2973 RMK AO2 T02950232
KGLE 280055Z AUTO 19018G22KT 7SM CLR 30/23 A2973 RMK AO2 T03020230
KGLE 280035Z AUTO 19017G23KT 7SM CLR 31/23 A2974 RMK AO2 T03070231
KGLE 280015Z AUTO 19013G23KT 7SM CLR 31/23 A2974 RMK AO2 T03100232
KGLE 272355Z AUTO 19017G21KT 7SM CLR 32/23 A2975 RMK AO2 T03150232 10349 20312
KGLE 272335Z AUTO 19016G22KT 7SM CLR 32/24 A2976 RMK AO2 T03150235


Page loaded:  11:33 UTC  |   04:33 AM Pacific  |   05:33 AM Mountain  |   06:33 AM Central  |   07:33 AM Eastern

 

ADVISORIES

FORECASTS

FORECASTS

OBSERVATIONS

USER TOOLS

ABOUT US